Time;durP1;ratioP1;P1;durP2;ratioP2;P2;SDS_P1;SDS_P2;PMS_P1;PMS_P2;Temp;Humidity;BMP_temperature;BMP_pressure;BME280_temperature;BME280_humidity;BME280_pressure;Samples;Min_cycle;Max_cycle;Signal;HPM_P1;HPM_P2
2023/06/08 00:02:35;;;;;;;7.43;6.80;;;21.60;93.60;;;;;;4993065;28;20466;-84
2023/06/08 00:05:43;;;;;;;7.13;6.57;;;21.70;93.80;;;;;;4963768;28;20534;-85
2023/06/08 00:08:34;;;;;;;8.03;7.30;;;21.60;93.80;;;;;;4964376;28;20479;-84
2023/06/08 00:11:40;;;;;;;7.23;6.63;;;21.60;93.80;;;;;;4969639;28;20478;-85
2023/06/08 00:14:48;;;;;;;8.23;7.30;;;21.50;93.70;;;;;;4912476;29;20472;-82
2023/06/08 00:17:43;;;;;;;7.33;6.50;;;21.50;93.70;;;;;;4920252;29;21075;-83
2023/06/08 00:20:27;;;;;;;7.80;7.00;;;21.60;93.80;;;;;;4924360;29;20471;-86
2023/06/08 00:23:32;;;;;;;7.23;6.50;;;21.50;93.50;;;;;;4928192;29;21082;-84
2023/06/08 00:26:15;;;;;;;7.90;7.13;;;21.40;94.10;;;;;;4940301;28;20502;-85
2023/06/08 00:39:42;;;;;;;8.80;7.33;;;21.40;94.10;;;;;;5095097;23;20494;-83
2023/06/08 00:42:25;;;;;;;7.80;6.87;;;21.30;94.40;;;;;;5014894;28;20442;-85
2023/06/08 00:45:24;;;;;;;7.50;6.87;;;21.20;94.60;;;;;;5015711;28;20585;-83
2023/06/08 00:48:22;;;;;;;8.20;7.30;;;21.20;94.80;;;;;;5027621;28;20737;-85
2023/06/08 00:51:03;;;;;;;7.10;6.60;;;21.20;95.00;;;;;;5018193;28;20459;-85
2023/06/08 00:53:56;;;;;;;7.57;6.90;;;21.10;94.80;;;;;;5031598;28;20456;-85
2023/06/08 00:57:12;;;;;;;6.20;5.70;;;21.10;94.80;;;;;;5022916;28;20453;-84
2023/06/08 01:04:14;;;;;;;6.40;5.90;;;21.00;95.00;;;;;;5031621;28;20449;-83
2023/06/08 01:07:25;;;;;;;8.00;7.30;;;21.00;95.20;;;;;;4962865;28;20487;-85
2023/06/08 01:10:58;;;;;;;8.20;7.40;;;21.00;95.50;;;;;;5142448;22;20493;-83
2023/06/08 01:21:22;;;;;;;7.97;7.27;;;21.00;95.10;;;;;;5005344;28;20466;-84
2023/06/08 01:24:31;;;;;;;8.00;7.00;;;21.00;95.20;;;;;;5002590;28;20474;-85
2023/06/08 01:27:36;;;;;;;7.23;6.57;;;20.90;95.10;;;;;;5003794;28;20542;-85
2023/06/08 01:30:41;;;;;;;7.80;7.10;;;20.90;95.20;;;;;;5005174;28;21166;-84
2023/06/08 01:33:30;;;;;;;7.30;6.70;;;20.90;95.30;;;;;;5006856;28;20447;-85
2023/06/08 01:39:55;;;;;;;7.33;6.73;;;20.80;94.90;;;;;;4981862;28;20553;-84
2023/06/08 01:42:52;;;;;;;7.10;6.53;;;20.70;95.00;;;;;;5012387;28;20438;-81
2023/06/08 01:45:51;;;;;;;7.90;7.10;;;20.80;94.90;;;;;;4986408;28;20497;-85
2023/06/08 01:48:37;;;;;;;8.03;7.33;;;20.80;94.90;;;;;;5012740;28;20576;-85
2023/06/08 01:51:41;;;;;;;8.20;7.40;;;20.80;94.60;;;;;;4979894;28;20534;-83
2023/06/08 01:54:25;;;;;;;7.77;7.17;;;20.80;94.30;;;;;;5008660;28;20466;-84
2023/06/08 01:57:58;;;;;;;7.47;6.87;;;20.80;94.40;;;;;;5007904;28;20457;-84
2023/06/08 02:01:29;;;;;;;7.30;6.60;;;20.70;94.70;;;;;;4995212;28;20422;-84
2023/06/08 02:04:22;;;;;;;8.40;7.30;;;20.70;94.90;;;;;;4998493;28;20454;-85
2023/06/08 02:07:32;;;;;;;8.40;6.90;;;20.70;95.20;;;;;;5000838;28;20940;-83
2023/06/08 02:10:39;;;;;;;7.93;7.23;;;20.80;95.40;;;;;;5133440;23;20517;-85
2023/06/08 02:13:55;;;;;;;8.57;7.77;;;20.80;94.80;;;;;;4999606;28;20442;-84
2023/06/08 02:17:18;;;;;;;11.03;7.70;;;20.70;94.90;;;;;;4895430;29;21705;-84
2023/06/08 02:44:48;;;;;;;8.30;7.60;;;20.50;95.20;;;;;;3283724;23;20505;-83
2023/06/08 02:48:01;;;;;;;8.90;7.67;;;20.50;95.10;;;;;;5035367;28;20490;-84
2023/06/08 02:51:01;;;;;;;9.47;8.57;;;20.40;95.50;;;;;;4991728;28;20555;-85
2023/06/08 02:53:40;;;;;;;8.23;7.43;;;20.40;95.50;;;;;;4994056;28;20439;-85
2023/06/08 02:56:37;;;;;;;8.60;7.80;;;20.40;95.40;;;;;;5006899;28;20467;-84
2023/06/08 02:59:32;;;;;;;;;;;;;;;;;;;;;
2023/06/08 03:02:45;;;;;;;9.00;8.17;;;20.40;95.30;;;;;;4959027;28;20453;-84
2023/06/08 03:06:07;;;;;;;9.07;8.27;;;20.40;95.40;;;;;;4965752;28;20514;-84
2023/06/08 03:09:21;;;;;;;9.30;8.60;;;20.80;94.70;;;;;;4939767;28;20457;-85
2023/06/08 03:12:44;;;;;;;;;;;;;;;;;;;;;
2023/06/08 03:19:12;;;;;;;9.77;8.77;;;20.60;94.50;;;;;;4950950;28;20471;-84
2023/06/08 03:22:29;;;;;;;9.97;8.97;;;20.40;95.20;;;;;;4908528;29;20441;-83
2023/06/08 03:25:11;;;;;;;9.70;8.80;;;20.20;95.60;;;;;;4936370;29;20461;-83
2023/06/08 03:28:04;;;;;;;10.10;9.10;;;20.10;96.10;;;;;;4979369;28;20474;-83
2023/06/08 03:31:12;;;;;;;9.20;8.40;;;20.10;96.40;;;;;;5009636;28;20550;-86
2023/06/08 03:34:34;;;;;;;9.60;8.70;;;20.10;96.50;;;;;;4990880;28;20458;-84
2023/06/08 03:45:36;;;;;;;;;;;;;;;;;;;;;
2023/06/08 03:52:50;;;;;;;;;;;;;;;;;;;;;
2023/06/08 22:57:45;;;;;;;6.73;6.23;;;21.10;96.50;;;;;;3901113;23;20551;-86
2023/06/08 23:09:41;;;;;;;;;;;;;;;;;;;;;
2023/06/08 23:17:22;;;;;;;8.03;7.33;;;20.90;98.00;;;;;;4829576;29;20494;-86
